Time;durP1;ratioP1;P1;durP2;ratioP2;P2;SDS_P1;SDS_P2;PMS_P1;PMS_P2;Temp;Humidity;BMP_temperature;BMP_pressure;BME280_temperature;BME280_humidity;BME280_pressure;Samples;Min_cycle;Max_cycle;Signal;HPM_P1;HPM_P2
2021/06/22 00:02:12;;;;;;;6.70;3.20;;;;;;;22.39;72.71;98727.09;4977858;28;20042;-69
2021/06/22 00:04:41;;;;;;;7.28;3.40;;;;;;;22.30;72.46;98706.91;4977632;28;20043;-70
2021/06/22 00:07:19;;;;;;;5.20;3.25;;;;;;;22.41;72.54;98722.63;4960268;28;20055;-70
2021/06/22 00:09:52;;;;;;;9.15;3.90;;;;;;;22.42;72.66;98713.91;4960839;28;20077;-70
2021/06/22 00:12:24;;;;;;;6.72;3.50;;;;;;;22.43;72.76;98715.59;4976624;28;20051;-70
2021/06/22 00:14:54;;;;;;;6.05;3.28;;;;;;;22.40;72.84;98718.38;4977549;28;20069;-69
2021/06/22 00:17:25;;;;;;;;;;;;;;;22.36;72.90;98727.28;4978098;28;20109;-69
2021/06/22 00:19:58;;;;;;;7.03;3.28;;;;;;;22.32;73.25;98723.22;4977508;28;19922;-70
2021/06/22 00:22:32;;;;;;;8.05;3.92;;;;;;;22.27;73.31;98711.44;4977430;28;20075;-72
2021/06/22 00:25:02;;;;;;;7.43;3.88;;;;;;;22.24;73.69;98714.25;4977312;28;20093;-69
2021/06/22 00:27:34;;;;;;;6.75;3.67;;;;;;;22.22;73.57;98713.53;4977288;28;20081;-70
2021/06/22 00:30:08;;;;;;;10.57;4.07;;;;;;;22.23;73.77;98721.22;4977129;28;20058;-70
2021/06/22 00:32:41;;;;;;;9.60;4.28;;;;;;;22.18;73.68;98722.44;4977140;28;20401;-71
2021/06/22 00:35:15;;;;;;;8.80;3.92;;;;;;;22.14;73.96;98721.81;4977199;28;20413;-71
2021/06/22 00:37:49;;;;;;;5.72;3.70;;;;;;;22.11;74.01;98724.59;4959876;28;20178;-70
2021/06/22 00:40:22;;;;;;;8.50;6.20;;;;;;;22.12;73.94;98717.63;4976985;28;20062;-70
2021/06/22 00:42:56;;;;;;;10.23;4.68;;;;;;;22.08;74.10;98701.38;4959881;28;20056;-72
2021/06/22 00:45:28;;;;;;;7.95;3.08;;;;;;;22.06;74.17;98703.25;4960143;28;20055;-69
2021/06/22 00:48:03;;;;;;;10.35;3.40;;;;;;;22.09;74.20;98695.28;4976999;28;20057;-70
2021/06/22 00:50:34;;;;;;;7.80;3.60;;;;;;;22.08;74.20;98696.19;4976853;28;20058;-68
2021/06/22 00:53:10;;;;;;;6.88;3.72;;;;;;;22.08;74.11;98696.19;4977085;28;20060;-71
2021/06/22 00:55:44;;;;;;;6.30;3.35;;;;;;;22.03;73.96;98695.63;4976784;28;20508;-70
2021/06/22 00:58:37;;;;;;;10.02;3.85;;;;;;;21.96;74.08;98683.97;4976639;28;20050;-70
2021/06/22 01:01:10;;;;;;;8.18;3.90;;;;;;;21.95;74.13;98693.53;4976699;28;20515;-70
2021/06/22 01:03:42;;;;;;;4.88;3.17;;;;;;;21.97;74.16;98693.44;4976359;28;20050;-71
2021/06/22 01:06:21;;;;;;;7.70;3.50;;;;;;;21.97;73.92;98696.88;4976729;28;20050;-70
2021/06/22 01:09:06;;;;;;;5.88;3.67;;;;;;;21.98;73.84;98695.09;4976348;28;20109;-68
2021/06/22 01:11:41;;;;;;;8.85;3.97;;;;;;;21.99;73.78;98687.22;4975750;28;20058;-70
2021/06/22 01:14:13;;;;;;;8.38;3.30;;;;;;;21.96;73.78;98686.56;4959410;28;20058;-70
2021/06/22 01:16:43;;;;;;;6.97;3.58;;;;;;;21.90;73.95;98686.97;4976178;28;20058;-69
2021/06/22 01:19:18;;;;;;;6.95;3.63;;;;;;;21.92;73.92;98682.50;4958936;28;20059;-69
2021/06/22 01:21:58;;;;;;;7.78;3.42;;;;;;;21.89;74.18;98700.88;4976388;28;20062;-69
2021/06/22 01:24:53;;;;;;;8.75;3.75;;;;;;;21.89;74.20;98699.13;4963709;28;20084;-69
2021/06/22 01:27:24;;;;;;;9.70;3.80;;;;;;;21.92;73.96;98705.88;4976221;28;20109;-69
2021/06/22 01:30:01;;;;;;;7.80;3.80;;;;;;;21.89;74.09;98703.47;4976262;28;20054;-70
2021/06/22 01:32:34;;;;;;;8.85;3.88;;;;;;;21.86;74.38;98706.25;4958910;28;20074;-68
2021/06/22 01:35:09;;;;;;;9.25;5.05;;;;;;;21.79;74.57;98707.53;4975843;28;20454;-70
2021/06/22 01:38:04;;;;;;;9.93;4.40;;;;;;;21.82;74.69;98704.75;4976343;28;20145;-70
2021/06/22 01:40:45;;;;;;;13.23;5.15;;;;;;;21.76;74.81;98705.16;4975429;28;20051;-70
2021/06/22 01:43:23;;;;;;;10.70;4.60;;;;;;;21.72;74.98;98719.22;4958754;28;20050;-71
2021/06/22 01:45:57;;;;;;;9.18;4.15;;;;;;;21.74;75.28;98725.19;4958935;28;20105;-69
2021/06/22 01:48:27;;;;;;;10.07;4.05;;;;;;;21.72;75.11;98729.63;4975729;28;20050;-70
2021/06/22 01:51:00;;;;;;;9.07;4.18;;;;;;;21.72;75.26;98734.81;4958818;28;20543;-70
2021/06/22 01:53:35;;;;;;;8.00;3.90;;;;;;;21.67;75.25;98747.25;4975696;28;20086;-70
2021/06/22 01:56:14;;;;;;;6.68;4.80;;;;;;;21.61;75.48;98730.28;4975689;28;20058;-69
2021/06/22 01:58:49;;;;;;;10.15;4.97;;;;;;;21.57;75.72;98730.56;4975581;28;20054;-69
2021/06/22 02:01:32;;;;;;;6.95;4.47;;;;;;;21.61;75.92;98737.25;4975599;28;20064;-69
2021/06/22 02:04:22;;;;;;;8.88;4.38;;;;;;;21.57;76.13;98740.97;4934827;29;20050;-68
2021/06/22 02:06:57;;;;;;;12.27;4.80;;;;;;;21.55;76.12;98742.78;4919492;29;20438;-70
2021/06/22 02:09:51;;;;;;;8.57;4.50;;;;;;;21.48;76.46;98725.91;4921819;29;20569;-69
2021/06/22 02:12:38;;;;;;;8.75;5.15;;;;;;;21.49;76.49;98732.78;4934393;29;20066;-69
2021/06/22 02:15:12;;;;;;;9.27;4.43;;;;;;;21.44;76.76;98729.63;4934699;29;20051;-70
2021/06/22 02:17:46;;;;;;;11.93;5.90;;;;;;;21.36;76.81;98733.53;4934592;29;20467;-69
2021/06/22 02:20:16;;;;;;;8.35;5.20;;;;;;;21.34;76.94;98734.53;4935031;29;20602;-69
2021/06/22 02:22:53;;;;;;;9.88;5.30;;;;;;;21.37;77.39;98736.97;4934469;29;20142;-69
2021/06/22 02:25:30;;;;;;;8.88;4.82;;;;;;;21.38;77.29;98742.03;4934901;29;20052;-70
2021/06/22 02:28:09;;;;;;;10.48;4.20;;;;;;;21.29;77.46;98732.22;4934696;29;20083;-70
2021/06/22 02:30:45;;;;;;;11.15;4.47;;;;;;;21.27;77.52;98733.22;4934881;29;20094;-69
2021/06/22 02:33:18;;;;;;;7.57;4.63;;;;;;;21.31;77.51;98740.75;4934625;29;20071;-69
2021/06/22 02:35:56;;;;;;;7.65;4.93;;;;;;;21.31;77.35;98739.91;4948045;29;20124;-69
2021/06/22 02:38:41;;;;;;;8.18;4.55;;;;;;;21.26;77.40;98741.94;4954494;29;20059;-70
2021/06/22 02:41:21;;;;;;;11.07;4.55;;;;;;;21.26;77.59;98742.78;4954556;29;20106;-70
2021/06/22 02:43:58;;;;;;;8.18;4.50;;;;;;;21.26;77.37;98741.94;4954369;29;20055;-68
2021/06/22 02:46:31;;;;;;;9.35;4.97;;;;;;;21.21;77.54;98737.00;4954904;29;20102;-69
2021/06/22 02:49:02;;;;;;;7.07;4.63;;;;;;;21.26;77.39;98740.16;4955571;29;20490;-69
2021/06/22 02:51:37;;;;;;;6.93;4.18;;;;;;;21.24;77.38;98749.81;4954052;28;20082;-70
2021/06/22 02:54:11;;;;;;;9.10;4.53;;;;;;;21.26;77.54;98758.34;4953785;29;20074;-69
2021/06/22 02:56:42;;;;;;;10.27;4.53;;;;;;;21.29;77.21;98752.97;4955350;28;20058;-68
2021/06/22 02:59:11;;;;;;;11.73;4.40;;;;;;;21.30;77.24;98757.25;4955144;28;20458;-69
2021/06/22 03:01:44;;;;;;;;;;;;;;;21.29;77.09;98747.78;4955808;28;20055;-69
2021/06/22 03:04:15;;;;;;;9.05;4.25;;;;;;;21.25;77.21;98756.69;4955425;28;20359;-70
2021/06/22 03:06:47;;;;;;;;;;;;;;;21.21;76.97;98755.19;4955729;29;20058;-70
2021/06/22 03:09:31;;;;;;;7.63;3.95;;;;;;;21.20;77.03;98769.09;4955320;28;19961;-70
2021/06/22 03:12:08;;;;;;;10.05;4.07;;;;;;;21.18;77.13;98765.75;4961895;28;20082;-70
2021/06/22 03:15:00;;;;;;;9.05;4.50;;;;;;;21.16;77.07;98762.41;4972855;28;20097;-70
2021/06/22 03:17:37;;;;;;;23.83;19.70;;;;;;;21.22;76.93;98767.25;4974498;28;20378;-69
2021/06/22 03:20:09;;;;;;;13.23;7.25;;;;;;;21.17;77.03;98756.28;4974511;28;20062;-69
2021/06/22 03:22:50;;;;;;;10.07;4.53;;;;;;;21.24;76.80;98768.00;4957016;28;20409;-68
2021/06/22 03:25:23;;;;;;;7.65;4.03;;;;;;;21.24;76.78;98780.13;4974459;28;20051;-69
2021/06/22 03:28:07;;;;;;;7.38;3.75;;;;;;;21.26;76.95;98784.31;4974461;28;20051;-70
2021/06/22 03:31:06;;;;;;;10.88;4.45;;;;;;;21.26;76.58;98784.31;4943804;28;20051;-69
2021/06/22 03:33:39;;;;;;;6.80;4.00;;;;;;;21.24;76.43;98780.97;4974184;28;20051;-70
2021/06/22 03:36:14;;;;;;;5.78;3.60;;;;;;;21.24;76.62;98788.75;4974041;28;20082;-70
2021/06/22 03:38:47;;;;;;;8.82;3.85;;;;;;;21.26;76.27;98792.09;4974381;28;20429;-69
2021/06/22 03:41:20;;;;;;;6.30;3.72;;;;;;;21.26;76.30;98789.50;4974354;28;20058;-71
2021/06/22 03:43:54;;;;;;;5.95;3.83;;;;;;;21.28;76.24;98787.63;4974302;28;20087;-70
2021/06/22 03:46:23;;;;;;;8.95;4.15;;;;;;;21.33;76.43;98790.00;4974497;28;20440;-69
2021/06/22 03:48:57;;;;;;;9.77;4.03;;;;;;;21.40;76.24;98798.25;4956812;28;20145;-70
2021/06/22 03:51:29;;;;;;;8.00;4.30;;;;;;;21.45;76.33;98793.63;4974534;28;20134;-70
2021/06/22 03:53:59;;;;;;;8.95;3.95;;;;;;;21.57;75.94;98788.50;4956983;28;20382;-69
2021/06/22 03:56:32;;;;;;;7.82;4.05;;;;;;;21.58;75.74;98784.16;4956839;28;20387;-70
2021/06/22 03:59:12;;;;;;;7.50;4.63;;;;;;;21.67;75.83;98802.63;4973923;28;20133;-69
2021/06/22 04:01:45;;;;;;;10.55;4.15;;;;;;;21.72;75.44;98807.53;4974102;28;20058;-71
2021/06/22 04:04:16;;;;;;;13.15;4.60;;;;;;;21.77;75.44;98808.13;4976145;28;20507;-69
2021/06/22 04:07:00;;;;;;;10.02;3.72;;;;;;;21.84;75.18;98812.88;4977734;28;20057;-70
2021/06/22 04:09:34;;;;;;;8.15;3.10;;;;;;;21.90;74.79;98816.88;4960540;28;20055;-70
2021/06/22 04:12:07;;;;;;;6.20;3.50;;;;;;;21.92;74.63;98810.66;4976420;28;20050;-70
2021/06/22 04:14:44;;;;;;;10.65;4.07;;;;;;;22.02;73.98;98818.75;4977537;28;20051;-71
2021/06/22 04:17:17;;;;;;;6.22;3.63;;;;;;;22.04;73.91;98827.28;4977556;28;20499;-72
2021/06/22 04:19:53;;;;;;;6.95;3.67;;;;;;;22.07;73.46;98829.69;4977538;28;20153;-69
2021/06/22 04:22:26;;;;;;;8.65;3.60;;;;;;;22.11;73.48;98815.56;4977488;28;20057;-70
2021/06/22 04:25:13;;;;;;;8.68;3.45;;;;;;;22.11;73.18;98825.97;4977380;28;20051;-70
2021/06/22 04:27:46;;;;;;;11.27;3.60;;;;;;;22.21;73.04;98821.88;4977354;28;20523;-69
2021/06/22 04:30:22;;;;;;;9.02;3.90;;;;;;;22.28;72.85;98828.38;4959980;28;20076;-70
2021/06/22 04:32:55;;;;;;;6.20;3.42;;;;;;;22.29;72.88;98819.63;4977213;28;20059;-70
2021/06/22 04:35:29;;;;;;;6.45;3.80;;;;;;;22.40;73.01;98826.78;4977084;28;20053;-70
2021/06/22 04:38:03;;;;;;;9.13;3.88;;;;;;;22.45;72.36;98835.13;4977254;28;20055;-70
2021/06/22 04:40:38;;;;;;;13.05;4.47;;;;;;;22.52;71.89;98834.66;4977856;28;20097;-69
2021/06/22 04:43:10;;;;;;;10.35;4.15;;;;;;;22.72;71.42;98827.38;4977418;28;20142;-69
2021/06/22 04:45:44;;;;;;;6.97;3.63;;;;;;;22.93;70.86;98820.78;4977435;28;20054;-70
2021/06/22 04:48:14;;;;;;;7.65;3.80;;;;;;;23.07;70.51;98818.13;4977204;28;20085;-70
2021/06/22 04:50:47;;;;;;;10.63;3.67;;;;;;;23.09;70.13;98811.88;4976999;28;20050;-72
2021/06/22 04:53:20;;;;;;;7.00;3.55;;;;;;;23.02;70.20;98814.97;4960306;28;20405;-71
2021/06/22 04:55:54;;;;;;;5.13;3.30;;;;;;;23.03;70.25;98796.69;4977143;28;20489;-69
2021/06/22 04:58:23;;;;;;;8.23;3.05;;;;;;;23.24;69.86;98799.63;4977121;28;20070;-69
2021/06/22 05:00:57;;;;;;;9.82;3.05;;;;;;;23.42;69.68;98808.03;4976813;28;20051;-72
2021/06/22 05:03:31;;;;;;;6.00;3.25;;;;;;;23.60;69.31;98815.44;4977119;28;20062;-71
2021/06/22 05:06:04;;;;;;;7.00;3.22;;;;;;;23.79;68.63;98813.25;4977021;28;20466;-72
2021/06/22 05:08:37;;;;;;;8.40;3.50;;;;;;;23.94;68.14;98816.59;4976987;28;20078;-70
2021/06/22 05:11:09;;;;;;;11.77;3.53;;;;;;;24.11;67.94;98818.06;4976897;28;20054;-71
2021/06/22 05:13:42;;;;;;;5.53;3.03;;;;;;;24.32;67.44;98819.16;4976981;28;20074;-71
2021/06/22 05:16:17;;;;;;;6.15;3.30;;;;;;;24.48;66.95;98823.19;4975802;28;20039;-69
2021/06/22 05:18:49;;;;;;;6.32;2.85;;;;;;;24.66;66.50;98813.22;4976802;28;20138;-70
2021/06/22 05:21:22;;;;;;;6.70;3.17;;;;;;;24.75;66.17;98815.16;4976665;28;20050;-70
2021/06/22 05:23:55;;;;;;;7.20;3.17;;;;;;;24.91;65.82;98814.88;4976715;28;20503;-69
2021/06/22 05:26:28;;;;;;;7.30;2.90;;;;;;;25.06;65.54;98814.63;4976671;28;20069;-72
2021/06/22 05:29:00;;;;;;;5.93;3.13;;;;;;;25.22;64.62;98817.75;4976575;28;20066;-71
2021/06/22 05:31:36;;;;;;;5.70;2.78;;;;;;;25.35;64.04;98816.84;4976606;28;20059;-69
2021/06/22 05:34:08;;;;;;;7.10;2.70;;;;;;;25.48;63.79;98828.09;4976464;28;20046;-71
2021/06/22 05:36:41;;;;;;;8.95;2.85;;;;;;;25.61;62.87;98826.19;4976216;28;20503;-70
2021/06/22 05:39:14;;;;;;;6.30;2.58;;;;;;;25.66;62.23;98829.28;4976288;28;20054;-70
2021/06/22 05:41:45;;;;;;;5.97;2.88;;;;;;;25.80;61.77;98826.47;4976698;28;20066;-69
2021/06/22 05:44:15;;;;;;;5.35;2.80;;;;;;;25.92;61.63;98831.59;4976254;28;20054;-71
2021/06/22 05:46:48;;;;;;;7.97;3.28;;;;;;;26.09;61.36;98848.59;4976226;28;20042;-70
2021/06/22 05:49:21;;;;;;;5.75;3.15;;;;;;;26.17;60.88;98841.03;4977103;28;20420;-70
2021/06/22 05:51:54;;;;;;;9.27;3.40;;;;;;;26.32;60.58;98836.38;4976543;28;20485;-71
2021/06/22 05:54:23;;;;;;;6.80;2.50;;;;;;;26.45;59.93;98839.69;4976055;28;20046;-69
2021/06/22 05:56:56;;;;;;;7.10;3.33;;;;;;;26.53;59.65;98847.78;4975790;28;20047;-69
2021/06/22 05:59:25;;;;;;;5.53;2.63;;;;;;;26.67;59.33;98857.16;4976068;28;20075;-70
2021/06/22 06:01:58;;;;;;;;;;;;;;;26.83;59.14;98858.44;4976288;28;20055;-69
2021/06/22 06:04:29;;;;;;;5.63;2.95;;;;;;;26.98;58.33;98866.88;4976014;28;20387;-69
2021/06/22 06:07:05;;;;;;;6.40;2.83;;;;;;;27.12;58.14;98884.91;4975859;28;20061;-69
2021/06/22 06:09:34;;;;;;;7.25;3.20;;;;;;;27.33;57.33;98888.41;4975782;28;20051;-69
2021/06/22 06:12:08;;;;;;;5.63;2.95;;;;;;;27.62;57.49;98886.88;4974989;28;20050;-71
2021/06/22 06:14:38;;;;;;;5.43;2.70;;;;;;;27.65;56.75;98891.88;4975658;28;20046;-71
2021/06/22 06:17:12;;;;;;;5.82;3.10;;;;;;;27.39;57.09;98890.56;4975333;28;20043;-72
2021/06/22 06:19:45;;;;;;;8.15;3.08;;;;;;;27.28;56.75;98898.47;4975362;28;20046;-69
2021/06/22 06:22:18;;;;;;;7.22;3.03;;;;;;;27.39;56.45;98906.31;4975921;28;20413;-70
2021/06/22 06:24:52;;;;;;;5.78;3.00;;;;;;;27.63;57.27;98917.41;4975639;28;20460;-69
2021/06/22 06:27:24;;;;;;;4.72;2.90;;;;;;;27.82;56.86;98920.16;4975012;28;20125;-70
2021/06/22 06:29:59;;;;;;;7.60;3.03;;;;;;;28.01;55.98;98918.63;4975444;28;20512;-70
2021/06/22 06:32:34;;;;;;;5.65;3.17;;;;;;;27.90;56.26;98920.34;4975265;28;20082;-70
2021/06/22 06:35:10;;;;;;;6.97;4.03;;;;;;;27.80;55.77;98921.22;4975447;28;20054;-72
2021/06/22 06:37:43;;;;;;;5.90;3.50;;;;;;;27.65;55.33;98931.22;4975313;28;20410;-70
2021/06/22 06:40:12;;;;;;;5.32;3.30;;;;;;;27.76;55.43;98936.38;4975602;28;20145;-70
2021/06/22 06:42:45;;;;;;;4.80;3.17;;;;;;;27.57;56.27;98938.88;4975318;28;20058;-71
2021/06/22 06:45:19;;;;;;;8.57;3.55;;;;;;;27.66;56.60;98939.91;4975541;28;20437;-71
2021/06/22 06:47:55;;;;;;;5.55;3.20;;;;;;;27.91;56.17;98929.88;4975214;28;20079;-70
2021/06/22 06:50:28;;;;;;;5.47;3.50;;;;;;;28.17;55.70;98934.75;4975170;28;20058;-71
2021/06/22 06:53:00;;;;;;;6.40;3.30;;;;;;;28.42;54.84;98931.69;4975161;28;20046;-70
2021/06/22 06:55:38;;;;;;;7.95;3.53;;;;;;;28.56;53.33;98928.72;4975061;28;20070;-70
2021/06/22 06:58:11;;;;;;;5.65;3.63;;;;;;;28.25;52.76;98908.69;4974785;28;20485;-72
2021/06/22 07:00:45;;;;;;;5.82;3.50;;;;;;;28.01;52.73;98929.13;4975177;28;20154;-72
2021/06/22 07:03:19;;;;;;;8.18;3.38;;;;;;;27.70;53.83;98931.66;4974911;28;20069;-72
2021/06/22 07:05:51;;;;;;;5.13;3.10;;;;;;;27.47;54.59;98924.03;4975347;28;20050;-72
2021/06/22 07:08:20;;;;;;;8.63;3.85;;;;;;;27.42;55.32;98931.44;4974991;28;20055;-69
2021/06/22 07:10:50;;;;;;;6.25;3.92;;;;;;;27.52;54.92;98925.28;4975179;28;20043;-70
2021/06/22 07:13:22;;;;;;;6.75;3.53;;;;;;;27.50;54.67;98929.84;4973875;28;20063;-73
2021/06/22 07:15:52;;;;;;;6.90;3.85;;;;;;;27.85;54.14;98925.16;4975277;28;20065;-70
2021/06/22 07:18:29;;;;;;;7.47;3.50;;;;;;;28.15;53.51;98926.16;4974619;28;20079;-73
2021/06/22 07:21:02;;;;;;;6.25;3.63;;;;;;;28.39;52.95;98929.31;4974821;28;20106;-69
2021/06/22 07:23:35;;;;;;;5.80;3.25;;;;;;;28.54;52.62;98922.75;4974799;28;20054;-70
2021/06/22 07:26:07;;;;;;;6.00;3.67;;;;;;;28.65;52.06;98924.50;4974840;28;20069;-69
2021/06/22 07:28:40;;;;;;;4.75;3.40;;;;;;;28.90;52.03;98916.97;4974862;28;20051;-69
2021/06/22 07:31:12;;;;;;;4.53;3.25;;;;;;;29.02;50.99;98917.66;4974810;28;20059;-70
2021/06/22 07:33:50;;;;;;;4.93;3.53;;;;;;;29.10;50.68;98908.16;4974756;28;20101;-70
2021/06/22 07:36:23;;;;;;;6.03;4.15;;;;;;;29.19;50.23;98902.09;4974812;28;20516;-70
2021/06/22 07:38:57;;;;;;;7.10;3.30;;;;;;;29.25;50.35;98899.91;4959063;28;20057;-72
2021/06/22 07:41:26;;;;;;;6.80;3.58;;;;;;;29.23;51.43;98899.22;4978270;28;20050;-73
2021/06/22 07:43:59;;;;;;;5.55;3.40;;;;;;;29.33;51.09;98905.28;4978512;28;20396;-71
2021/06/22 07:46:28;;;;;;;5.03;3.72;;;;;;;29.29;51.35;98914.41;4978307;28;20050;-73
2021/06/22 07:49:02;;;;;;;6.97;3.50;;;;;;;29.19;51.70;98910.00;4978343;28;20064;-73
2021/06/22 07:51:34;;;;;;;7.18;4.30;;;;;;;29.22;52.35;98905.44;4961034;28;20066;-70
2021/06/22 07:54:10;;;;;;;7.82;4.68;;;;;;;29.34;52.08;98904.31;4978294;28;20121;-71
2021/06/22 07:56:43;;;;;;;8.13;4.22;;;;;;;29.42;52.47;98909.72;4978200;28;20145;-73
2021/06/22 07:59:12;;;;;;;8.18;4.00;;;;;;;29.48;52.78;98906.53;4976946;28;20051;-72
2021/06/22 08:01:42;;;;;;;8.15;4.07;;;;;;;29.67;52.55;98919.69;4977543;28;20489;-72
2021/06/22 08:04:13;;;;;;;7.07;3.80;;;;;;;29.78;51.93;98916.91;4978063;28;20065;-71
2021/06/22 08:06:42;;;;;;;7.18;4.38;;;;;;;29.78;50.83;98912.50;4977551;28;20122;-70
2021/06/22 08:09:11;;;;;;;;;;;;;;;29.72;50.50;98909.56;4975535;28;20050;-73
2021/06/22 08:11:41;;;;;;;6.93;4.20;;;;;;;29.84;50.76;98926.88;4943750;28;19926;-74
2021/06/22 08:14:11;;;;;;;6.45;4.15;;;;;;;30.00;49.97;98921.88;4977652;28;20101;-72
2021/06/22 08:16:40;;;;;;;7.57;4.20;;;;;;;30.10;50.04;98927.09;4977190;28;20464;-73
2021/06/22 08:19:11;;;;;;;6.60;4.40;;;;;;;30.16;49.62;98921.28;4977664;28;20396;-70
2021/06/22 08:21:45;;;;;;;8.05;4.35;;;;;;;30.17;49.59;98921.13;4977696;28;20062;-71
2021/06/22 08:24:14;;;;;;;5.50;4.32;;;;;;;30.18;49.30;98925.44;4977602;28;20082;-72
2021/06/22 08:26:44;;;;;;;7.05;4.30;;;;;;;30.19;49.20;98915.72;4977904;28;20501;-71
2021/06/22 08:29:13;;;;;;;;;;;;;;;30.22;49.19;98924.16;4977970;28;20050;-71
2021/06/22 08:31:43;;;;;;;7.93;4.75;;;;;;;30.29;49.56;98927.88;4977660;28;20016;-70
2021/06/22 08:34:15;;;;;;;8.93;4.70;;;;;;;30.33;49.15;98924.00;4977559;28;20047;-71
2021/06/22 08:36:49;;;;;;;7.85;4.25;;;;;;;30.39;49.00;98928.72;4977874;28;20063;-72
2021/06/22 08:39:22;;;;;;;6.82;4.07;;;;;;;30.54;48.83;98930.88;4977085;28;20047;-74
2021/06/22 08:41:56;;;;;;;6.15;4.25;;;;;;;30.62;47.92;98933.63;4977517;28;20058;-73
2021/06/22 08:44:30;;;;;;;6.68;3.88;;;;;;;30.85;47.17;98929.63;4977963;28;20477;-70
2021/06/22 08:47:01;;;;;;;8.43;4.30;;;;;;;31.16;47.84;98930.97;4977380;28;20054;-72
2021/06/22 08:49:35;;;;;;;8.07;4.13;;;;;;;31.37;46.61;98931.50;4976695;28;20050;-68
2021/06/22 08:52:09;;;;;;;7.00;4.40;;;;;;;30.69;47.27;98930.25;4976676;28;20062;-70
2021/06/22 08:54:39;;;;;;;8.18;4.38;;;;;;;30.44;47.92;98926.50;4977565;28;20070;-70
2021/06/22 08:57:11;;;;;;;7.18;4.32;;;;;;;30.58;47.85;98932.25;4976905;28;20497;-72
2021/06/22 08:59:42;;;;;;;7.95;4.43;;;;;;;30.47;47.93;98934.06;4977177;28;20070;-70
2021/06/22 09:02:15;;;;;;;10.05;4.45;;;;;;;30.34;48.22;98945.91;4977029;28;20053;-73
2021/06/22 09:04:44;;;;;;;6.75;4.60;;;;;;;30.11;48.05;98945.41;4976752;28;20051;-72
2021/06/22 09:07:47;;;;;;;6.68;4.38;;;;;;;29.90;48.54;98947.38;4976940;28;20070;-70
2021/06/22 09:10:26;;;;;;;6.85;4.35;;;;;;;29.79;49.54;98944.91;4976793;28;20126;-72
2021/06/22 09:12:59;;;;;;;10.18;4.28;;;;;;;29.78;49.48;98954.59;4975943;28;20055;-74
2021/06/22 09:15:33;;;;;;;7.13;4.63;;;;;;;29.88;49.42;98951.09;4977105;28;20055;-70
2021/06/22 09:18:06;;;;;;;8.18;4.38;;;;;;;29.93;49.09;98951.53;4959340;28;20046;-70
2021/06/22 09:20:40;;;;;;;8.52;4.90;;;;;;;29.99;48.65;98953.59;4976759;28;20059;-70
2021/06/22 09:23:17;;;;;;;8.32;4.38;;;;;;;30.02;48.44;98951.50;4976696;28;20055;-72
2021/06/22 09:25:54;;;;;;;7.72;4.78;;;;;;;30.16;48.66;98948.44;4976709;28;20062;-74
2021/06/22 09:28:29;;;;;;;9.95;4.75;;;;;;;30.63;48.93;98951.91;4976895;28;20065;-70
2021/06/22 09:31:01;;;;;;;7.57;4.15;;;;;;;31.07;48.07;98958.25;4976266;28;20055;-70
2021/06/22 09:33:37;;;;;;;8.93;4.93;;;;;;;31.49;47.78;98951.44;4976544;28;20058;-71
2021/06/22 09:36:13;;;;;;;9.20;4.47;;;;;;;31.66;46.46;98945.34;4976644;28;20401;-70
2021/06/22 09:38:50;;;;;;;13.95;4.85;;;;;;;31.60;46.21;98943.28;4976504;28;20401;-71
2021/06/22 09:41:26;;;;;;;9.57;4.60;;;;;;;31.76;46.54;98946.09;4976390;28;20413;-73
2021/06/22 09:44:01;;;;;;;7.30;4.82;;;;;;;31.99;46.69;98943.78;4976314;28;20523;-73
2021/06/22 09:46:36;;;;;;;6.60;4.53;;;;;;;32.11;46.60;98954.94;4976055;28;20090;-73
2021/06/22 09:49:11;;;;;;;6.25;4.65;;;;;;;31.55;48.15;98942.94;4976031;28;20102;-73
2021/06/22 09:51:53;;;;;;;7.65;5.03;;;;;;;31.37;49.41;98957.06;4976517;28;20061;-73
2021/06/22 09:54:26;;;;;;;8.10;4.80;;;;;;;31.16;48.92;98957.34;4976424;28;20485;-73
2021/06/22 09:57:00;;;;;;;6.35;4.50;;;;;;;31.07;48.67;98960.88;4970509;28;20050;-71
2021/06/22 09:59:32;;;;;;;8.07;4.70;;;;;;;30.85;49.93;98961.25;4966701;28;20054;-72
2021/06/22 10:02:09;;;;;;;8.60;4.75;;;;;;;30.62;49.86;98959.97;4960572;28;20047;-70
2021/06/22 10:04:43;;;;;;;8.55;5.18;;;;;;;30.77;49.98;98958.50;4970380;28;20410;-71
2021/06/22 10:07:13;;;;;;;8.52;5.13;;;;;;;31.02;49.62;98952.59;4956438;29;20051;-71
2021/06/22 10:09:43;;;;;;;6.55;4.90;;;;;;;30.89;49.91;98952.09;4967279;28;20078;-73
2021/06/22 10:12:16;;;;;;;9.07;4.88;;;;;;;30.80;50.72;98952.94;4949466;28;20126;-72
2021/06/22 10:14:47;;;;;;;7.95;5.20;;;;;;;30.74;50.62;98949.09;4969911;28;20061;-73
2021/06/22 10:17:19;;;;;;;8.27;5.20;;;;;;;30.93;51.02;98954.28;4972861;28;20371;-72
2021/06/22 10:19:52;;;;;;;10.15;5.10;;;;;;;31.25;50.19;98952.97;4971283;28;20078;-72
2021/06/22 10:22:25;;;;;;;7.78;5.20;;;;;;;31.55;50.82;98950.84;4968293;28;20085;-74
2021/06/22 10:24:56;;;;;;;8.57;5.20;;;;;;;31.72;49.35;98947.34;4973659;28;20047;-69
2021/06/22 10:27:29;;;;;;;7.78;4.97;;;;;;;31.49;49.04;98946.16;4970207;28;20134;-73
2021/06/22 10:30:01;;;;;;;7.50;5.50;;;;;;;31.73;50.18;98946.38;4958426;28;20567;-71
2021/06/22 10:32:32;;;;;;;7.50;5.03;;;;;;;32.13;49.37;98945.06;4973337;28;20058;-73
2021/06/22 10:35:08;;;;;;;8.82;5.00;;;;;;;32.46;47.82;98941.63;4973932;28;20047;-74
2021/06/22 10:37:42;;;;;;;12.10;5.28;;;;;;;32.61;47.25;98947.97;4968523;28;20068;-74
2021/06/22 10:40:17;;;;;;;8.70;5.10;;;;;;;32.59;48.38;98946.47;4969461;28;20050;-73
2021/06/22 10:42:50;;;;;;;7.50;5.47;;;;;;;32.66;48.00;98943.06;4971305;28;20130;-71
2021/06/22 10:45:22;;;;;;;8.70;5.90;;;;;;;32.82;47.52;98937.00;4972664;28;20401;-72
2021/06/22 10:47:56;;;;;;;7.82;4.85;;;;;;;32.95;47.76;98945.31;4971309;28;20054;-69
2021/06/22 10:50:32;;;;;;;8.90;5.10;;;;;;;32.94;46.49;98920.69;4961532;28;20042;-72
2021/06/22 10:53:06;;;;;;;6.80;5.00;;;;;;;33.18;46.48;98941.13;4971206;28;20049;-69
2021/06/22 10:56:04;;;;;;;7.43;5.30;;;;;;;33.17;45.96;98939.44;4974134;28;20059;-69
2021/06/22 10:58:35;;;;;;;10.30;5.90;;;;;;;33.16;46.18;98945.75;4971396;28;20050;-71
2021/06/22 11:01:14;;;;;;;7.57;5.38;;;;;;;32.89;46.16;98944.16;4970336;28;20047;-70
2021/06/22 11:03:43;;;;;;;10.02;5.63;;;;;;;32.94;46.61;98931.28;4973929;28;20043;-69
2021/06/22 11:06:26;;;;;;;10.00;6.00;;;;;;;33.20;47.39;98931.19;4972653;28;20051;-72
2021/06/22 11:09:16;;;;;;;12.02;5.97;;;;;;;33.41;47.05;98928.06;4962837;28;20046;-72
2021/06/22 11:11:45;;;;;;;7.53;5.43;;;;;;;33.28;45.78;98938.31;4971133;28;20047;-71
2021/06/22 11:14:17;;;;;;;10.25;5.35;;;;;;;33.31;45.75;98940.63;4974372;28;20585;-71
2021/06/22 11:16:47;;;;;;;8.52;6.00;;;;;;;32.98;46.09;98943.19;4970164;28;20098;-70
2021/06/22 11:19:16;;;;;;;10.13;5.90;;;;;;;33.14;45.73;98936.31;4968726;28;20059;-72
2021/06/22 11:21:53;;;;;;;8.40;6.35;;;;;;;33.18;45.69;98937.66;4973479;28;20043;-72
2021/06/22 11:24:28;;;;;;;7.55;5.68;;;;;;;33.16;45.94;98939.63;4974826;28;20401;-73
2021/06/22 11:27:06;;;;;;;7.25;5.68;;;;;;;33.01;46.55;98937.56;4973715;28;20063;-72
2021/06/22 11:29:53;;;;;;;8.50;6.30;;;;;;;32.97;45.95;98941.50;4974791;28;20150;-69
2021/06/22 11:32:43;;;;;;;9.18;5.88;;;;;;;32.75;46.32;98946.56;4970110;28;20043;-68
2021/06/22 11:35:17;;;;;;;9.57;6.00;;;;;;;32.88;45.63;98942.47;4965423;28;20047;-71
2021/06/22 11:37:47;;;;;;;10.07;5.75;;;;;;;32.86;45.85;98939.19;4972104;28;20102;-72
2021/06/22 11:40:21;;;;;;;9.18;5.60;;;;;;;33.03;45.87;98935.63;4970049;28;20050;-71
2021/06/22 11:43:08;;;;;;;8.63;5.32;;;;;;;33.05;46.22;98933.66;4972045;28;20039;-72
2021/06/22 11:45:39;;;;;;;9.05;5.68;;;;;;;33.37;46.33;98924.09;4955048;29;20500;-73
2021/06/22 11:48:08;;;;;;;10.45;5.60;;;;;;;33.38;46.79;98933.72;4967187;28;20050;-71
2021/06/22 11:50:48;;;;;;;9.25;6.13;;;;;;;33.35;46.27;98931.38;4973867;28;20078;-70
2021/06/22 11:53:17;;;;;;;10.88;5.53;;;;;;;33.43;45.45;98931.38;4969309;28;20132;-73
2021/06/22 11:55:50;;;;;;;9.25;6.00;;;;;;;33.32;45.55;98935.19;4971056;28;20051;-70
2021/06/22 11:58:22;;;;;;;10.65;5.63;;;;;;;33.43;45.04;98931.38;4973107;28;20043;-74
2021/06/22 12:00:58;;;;;;;11.40;6.00;;;;;;;33.64;44.26;98927.28;4971825;28;20054;-71
2021/06/22 12:03:32;;;;;;;9.52;5.78;;;;;;;33.66;45.59;98911.25;4974549;28;20201;-73
2021/06/22 12:06:07;;;;;;;14.02;5.57;;;;;;;33.69;45.24;98926.78;4955946;28;20094;-72
2021/06/22 12:08:38;;;;;;;11.38;5.55;;;;;;;33.45;45.01;98922.28;4971148;28;20493;-70